createdAt,value
2024-04-18T00:01:24.690Z,7.45
2024-04-18T00:04:30.005Z,9.75
2024-04-18T00:07:36.451Z,5.32
2024-04-18T00:10:53.296Z,7.07
2024-04-18T00:14:14.338Z,5.82
2024-04-18T00:17:20.073Z,6.10
2024-04-18T00:20:23.744Z,6.57
2024-04-18T00:23:27.332Z,3.70
2024-04-18T00:26:45.412Z,6.30
2024-04-18T00:29:50.911Z,6.47
2024-04-18T00:32:54.742Z,3.50
2024-04-18T00:36:13.710Z,3.75
2024-04-18T00:39:26.647Z,4.80
2024-04-18T00:42:35.997Z,5.30
2024-04-18T00:45:43.321Z,3.72
2024-04-18T00:48:59.890Z,3.95
2024-04-18T00:52:03.921Z,4.15
2024-04-18T00:55:09.286Z,5.18
2024-04-18T00:58:13.911Z,5.97
2024-04-18T01:01:19.062Z,3.73
2024-04-18T01:04:32.201Z,3.15
2024-04-18T01:07:55.967Z,3.80
2024-04-18T01:10:59.411Z,3.60
2024-04-18T01:14:11.356Z,4.80
2024-04-18T01:17:35.034Z,5.38
2024-04-18T01:20:39.873Z,3.83
2024-04-18T01:23:43.466Z,5.72
2024-04-18T01:26:48.589Z,4.20
2024-04-18T01:29:52.226Z,4.57
2024-04-18T01:33:14.724Z,2.90
2024-04-18T01:36:18.476Z,3.17
2024-04-18T01:39:28.687Z,4.07
2024-04-18T01:42:41.904Z,3.38
2024-04-18T01:46:00.860Z,8.47
2024-04-18T01:49:04.551Z,6.80
2024-04-18T01:52:42.259Z,3.13
2024-04-18T01:55:46.151Z,5.32
2024-04-18T01:59:12.746Z,6.35
2024-04-18T02:02:16.308Z,4.27
2024-04-18T02:05:40.241Z,3.50
2024-04-18T02:08:52.965Z,2.47
2024-04-18T02:12:15.198Z,3.17
2024-04-18T02:15:37.622Z,3.47
2024-04-18T02:18:51.434Z,2.93
2024-04-18T02:21:56.279Z,5.30
2024-04-18T02:25:13.376Z,2.33
2024-04-18T02:28:17.151Z,2.97
2024-04-18T02:31:21.007Z,3.55
2024-04-18T02:34:27.607Z,5.03
2024-04-18T02:37:31.392Z,3.50
2024-04-18T02:40:35.288Z,5.40
2024-04-18T02:43:39.155Z,4.72
2024-04-18T02:46:42.823Z,4.50
2024-04-18T02:49:49.577Z,2.90
2024-04-18T02:52:53.244Z,5.30
2024-04-18T02:55:57.951Z,7.90
2024-04-18T02:59:08.469Z,4.00
2024-04-18T03:02:28.473Z,5.90
2024-04-18T03:05:50.730Z,4.83
2024-04-18T03:09:01.574Z,3.83
2024-04-18T03:12:08.163Z,3.00
2024-04-18T03:15:17.590Z,3.92
2024-04-18T03:18:39.865Z,4.65
2024-04-18T03:21:53.005Z,3.17
2024-04-18T03:24:56.797Z,3.30
2024-04-18T03:28:03.480Z,3.20
2024-04-18T03:31:07.215Z,7.28
2024-04-18T03:34:11.712Z,2.53
2024-04-18T03:37:27.255Z,3.70
2024-04-18T03:40:31.049Z,3.15
2024-04-18T03:43:42.719Z,4.05
2024-04-18T03:46:46.336Z,3.30
2024-04-18T03:50:10.353Z,12.43
2024-04-18T03:53:13.960Z,4.90
2024-04-18T03:56:17.564Z,3.97
2024-04-18T03:59:22.985Z,8.45
2024-04-18T04:02:26.955Z,2.53
2024-04-18T04:05:30.504Z,2.15
2024-04-18T04:08:34.294Z,2.60
2024-04-18T04:11:46.775Z,2.07
2024-04-18T04:14:51.515Z,2.83
2024-04-18T04:17:56.340Z,6.50
2024-04-18T04:21:17.501Z,3.53
2024-04-18T04:24:22.085Z,3.60
2024-04-18T04:27:25.987Z,3.17
2024-04-18T04:30:29.547Z,2.28
2024-04-18T04:33:36.434Z,2.83
2024-04-18T04:36:41.931Z,3.67
2024-04-18T04:39:46.012Z,4.43
2024-04-18T04:42:57.185Z,3.13
2024-04-18T04:46:02.436Z,2.85
2024-04-18T04:49:15.245Z,2.65
2024-04-18T04:52:38.161Z,7.32
2024-04-18T04:55:54.493Z,9.63
2024-04-18T04:58:58.222Z,4.10
2024-04-18T05:02:01.756Z,2.65
2024-04-18T05:05:23.758Z,5.50
2024-04-18T05:08:39.334Z,5.35
2024-04-18T05:11:43.163Z,3.50
2024-04-18T05:15:06.905Z,4.27
2024-04-18T05:18:35.274Z,4.63
2024-04-18T05:21:39.403Z,2.70
2024-04-18T05:25:02.490Z,1.98
2024-04-18T05:28:12.639Z,3.23
2024-04-18T05:31:16.611Z,4.50
2024-04-18T05:34:20.356Z,3.90
2024-04-18T05:37:25.277Z,2.88
2024-04-18T05:40:29.741Z,2.00
2024-04-18T05:43:35.393Z,2.70
2024-04-18T05:46:39.435Z,2.63
2024-04-18T05:49:43.318Z,19.95
2024-04-18T05:52:47.144Z,9.73
2024-04-18T05:55:59.912Z,10.50
2024-04-18T05:59:03.466Z,5.17
2024-04-18T06:02:09.986Z,4.83
2024-04-18T06:05:19.273Z,2.80
2024-04-18T06:09:04.256Z,4.38
2024-04-18T06:12:09.332Z,2.60
2024-04-18T06:15:13.027Z,2.43
2024-04-18T06:18:18.225Z,4.10
2024-04-18T06:21:21.813Z,3.88
2024-04-18T06:24:25.777Z,5.38
2024-04-18T06:27:30.300Z,2.13
2024-04-18T06:30:34.358Z,5.23
2024-04-18T06:33:39.367Z,2.90
2024-04-18T06:36:43.196Z,3.30
2024-04-18T06:39:47.722Z,5.10
2024-04-18T06:42:54.808Z,9.05
2024-04-18T06:45:58.773Z,7.80
2024-04-18T06:49:02.678Z,4.80
2024-04-18T06:52:06.909Z,3.40
2024-04-18T06:55:10.635Z,2.78
2024-04-18T06:58:20.783Z,2.95
2024-04-18T07:01:24.628Z,2.50
2024-04-18T07:04:34.539Z,2.83
2024-04-18T07:07:47.449Z,3.30
2024-04-18T07:11:09.148Z,3.75
2024-04-18T07:14:14.509Z,8.30
2024-04-18T07:17:18.558Z,5.00
2024-04-18T07:20:40.278Z,3.70
2024-04-18T07:23:44.005Z,3.63
2024-04-18T07:26:48.769Z,4.00
2024-04-18T07:29:52.701Z,3.90
2024-04-18T07:32:56.540Z,4.03
2024-04-18T07:36:23.277Z,3.63
2024-04-18T07:39:28.133Z,3.55
2024-04-18T07:42:32.545Z,9.27
2024-04-18T07:45:37.693Z,8.00
2024-04-18T07:48:42.552Z,4.40
2024-04-18T07:51:47.678Z,7.03
2024-04-18T07:54:51.541Z,3.75
2024-04-18T07:57:55.592Z,6.00
2024-04-18T08:01:01.001Z,5.00
2024-04-18T08:04:26.955Z,5.67
2024-04-18T08:07:31.280Z,4.20
2024-04-18T08:10:51.536Z,4.65
2024-04-18T08:14:04.610Z,6.25
2024-04-18T08:17:12.036Z,5.55
2024-04-18T08:20:16.784Z,4.93
2024-04-18T08:23:22.580Z,5.00
2024-04-18T08:26:26.247Z,7.13
2024-04-18T08:29:30.316Z,4.80
2024-04-18T08:32:35.184Z,9.45
2024-04-18T08:35:40.625Z,6.63
2024-04-18T08:38:45.492Z,6.93
2024-04-18T08:41:50.044Z,6.22
2024-04-18T08:44:57.555Z,4.38
2024-04-18T08:48:05.598Z,4.82
2024-04-18T08:51:09.661Z,4.53
2024-04-18T08:54:13.569Z,5.90
2024-04-18T08:57:23.385Z,9.48
2024-04-18T09:00:27.261Z,4.65
2024-04-18T09:03:31.960Z,9.70
2024-04-18T09:06:35.798Z,4.83
2024-04-18T09:09:39.574Z,13.20
2024-04-18T09:12:43.389Z,7.22
2024-04-18T09:15:47.409Z,15.00
2024-04-18T09:18:52.907Z,12.85
2024-04-18T09:21:57.272Z,10.00
2024-04-18T09:25:01.046Z,10.33
2024-04-18T09:28:05.200Z,7.35
2024-04-18T09:31:09.498Z,3.72
2024-04-18T09:34:19.754Z,5.30
2024-04-18T09:37:29.148Z,7.00
2024-04-18T09:40:35.703Z,5.67
2024-04-18T09:44:08.924Z,6.78
2024-04-18T09:47:15.995Z,6.28
2024-04-18T09:50:20.797Z,6.47
2024-04-18T09:53:24.492Z,6.97
2024-04-18T09:56:30.229Z,5.47
2024-04-18T09:59:34.611Z,15.15
2024-04-18T10:02:39.763Z,8.10
2024-04-18T10:05:50.061Z,26.63
2024-04-18T10:08:55.679Z,5.30
2024-04-18T10:11:59.944Z,11.87
2024-04-18T10:15:03.773Z,11.15
2024-04-18T10:18:20.464Z,12.32
2024-04-18T10:21:33.017Z,18.27
2024-04-18T10:24:42.333Z,16.40
2024-04-18T10:27:46.037Z,25.67
2024-04-18T10:30:51.048Z,31.05
2024-04-18T10:33:55.865Z,14.02
2024-04-18T10:37:07.541Z,9.30
2024-04-18T10:40:17.282Z,49.07
2024-04-18T10:43:21.083Z,22.80
2024-04-18T10:46:25.443Z,17.05
2024-04-18T10:49:29.359Z,18.17
2024-04-18T10:52:32.941Z,13.10
2024-04-18T10:55:37.419Z,8.47
2024-04-18T10:58:42.017Z,10.97
2024-04-18T11:01:45.783Z,7.75
2024-04-18T11:04:49.417Z,10.85
2024-04-18T11:07:55.557Z,8.25
2024-04-18T11:10:59.660Z,16.03
2024-04-18T11:14:04.746Z,17.17
2024-04-18T11:17:09.505Z,41.95
2024-04-18T11:20:14.007Z,23.60
2024-04-18T11:23:17.956Z,31.08
2024-04-18T11:26:21.852Z,20.00
2024-04-18T11:29:31.771Z,23.70
2024-04-18T11:32:35.745Z,22.35
2024-04-18T11:35:39.554Z,16.50
2024-04-18T11:38:49.541Z,18.10
2024-04-18T11:41:53.239Z,12.80
2024-04-18T11:44:57.028Z,15.00
2024-04-18T11:48:01.235Z,12.38
2024-04-18T11:51:05.394Z,16.80
2024-04-18T11:54:09.202Z,51.28
2024-04-18T11:57:13.337Z,40.43
2024-04-18T12:00:17.702Z,35.93
2024-04-18T12:03:42.526Z,81.15
2024-04-18T12:07:04.963Z,41.13
2024-04-18T12:10:09.264Z,31.65
2024-04-18T12:13:13.040Z,34.93
2024-04-18T12:16:37.002Z,17.37
2024-04-18T12:19:46.522Z,35.45
2024-04-18T12:23:08.752Z,14.90
2024-04-18T12:26:13.108Z,14.35
2024-04-18T12:29:24.838Z,13.17
2024-04-18T12:32:34.401Z,14.20
2024-04-18T12:35:38.455Z,15.93
2024-04-18T12:38:42.342Z,17.55
2024-04-18T12:41:46.324Z,34.70
2024-04-18T12:44:51.882Z,72.87
2024-04-18T12:48:01.786Z,367.93
2024-04-18T12:51:07.372Z,101.25
2024-04-18T12:54:20.104Z,28.83
2024-04-18T12:57:24.373Z,24.70
2024-04-18T13:00:40.097Z,32.97
2024-04-18T13:03:44.952Z,43.07
2024-04-18T13:07:08.089Z,44.55
2024-04-18T13:10:12.517Z,32.50
2024-04-18T13:13:22.166Z,26.58
2024-04-18T13:16:44.410Z,23.67
2024-04-18T13:19:48.621Z,20.93
2024-04-18T13:22:52.619Z,18.65
2024-04-18T13:25:56.929Z,39.83
2024-04-18T13:29:00.513Z,29.05
2024-04-18T13:32:04.594Z,26.90
2024-04-18T13:35:09.583Z,35.10
2024-04-18T13:38:13.338Z,42.60
2024-04-18T13:41:30.171Z,38.10
2024-04-18T13:44:51.057Z,55.40
2024-04-18T13:48:20.573Z,38.70
2024-04-18T13:51:24.371Z,41.50
2024-04-18T13:54:28.253Z,31.33
2024-04-18T13:57:32.188Z,15.63
2024-04-18T14:00:54.417Z,11.90
2024-04-18T14:04:04.797Z,12.37
2024-04-18T14:07:17.617Z,105.03
2024-04-18T14:10:23.075Z,34.15
2024-04-18T14:13:45.627Z,32.58
2024-04-18T14:17:24.478Z,17.00
2024-04-18T14:20:50.271Z,25.20
2024-04-18T14:23:53.992Z,34.70
2024-04-18T14:26:58.086Z,27.88
2024-04-18T14:30:02.168Z,31.15
2024-04-18T14:33:12.155Z,26.58
2024-04-18T14:36:15.930Z,31.67
2024-04-18T14:39:20.054Z,43.50
2024-04-18T14:42:24.171Z,57.60
2024-04-18T14:45:27.873Z,46.83
2024-04-18T14:48:31.627Z,33.75
2024-04-18T14:51:35.423Z,42.87
2024-04-18T14:54:59.282Z,23.75
2024-04-18T14:58:09.076Z,24.67
2024-04-18T15:01:24.787Z,12.48
2024-04-18T15:04:31.451Z,23.15
2024-04-18T15:08:13.860Z,29.03
2024-04-18T15:11:28.267Z,29.23
2024-04-18T15:14:39.106Z,32.58
2024-04-18T15:17:43.180Z,82.50
2024-04-18T15:20:47.194Z,93.18
2024-04-18T15:23:50.874Z,99.77
2024-04-18T15:27:05.200Z,104.75
2024-04-18T15:30:09.310Z,88.72
2024-04-18T15:33:13.357Z,104.30
2024-04-18T15:36:19.885Z,84.60
2024-04-18T15:39:27.296Z,85.57
2024-04-18T15:42:30.983Z,52.80
2024-04-18T15:45:43.047Z,60.22
2024-04-18T15:48:59.763Z,54.20
2024-04-18T15:52:07.132Z,58.65
2024-04-18T15:55:23.249Z,57.60
2024-04-18T15:58:27.246Z,58.38
2024-04-18T16:01:50.134Z,69.63
2024-04-18T16:05:12.142Z,72.82
2024-04-18T16:08:15.925Z,77.38
2024-04-18T16:11:19.870Z,71.40
2024-04-18T16:14:32.706Z,70.18
2024-04-18T16:17:39.985Z,65.70
2024-04-18T16:20:57.171Z,68.20
2024-04-18T16:24:15.315Z,49.67
2024-04-18T16:27:19.321Z,56.60
2024-04-18T16:30:34.697Z,52.38
2024-04-18T16:33:39.362Z,39.72
2024-04-18T16:37:08.932Z,47.10
2024-04-18T16:40:19.909Z,26.80
2024-04-18T16:43:38.189Z,26.23
2024-04-18T16:46:42.790Z,17.13
2024-04-18T16:49:46.379Z,14.65
2024-04-18T16:52:50.351Z,14.07
2024-04-18T16:56:12.461Z,13.90
2024-04-18T16:59:29.240Z,15.27
2024-04-18T17:02:33.150Z,24.67
2024-04-18T17:05:37.137Z,19.35
2024-04-18T17:08:43.962Z,17.60
2024-04-18T17:11:48.460Z,25.58
2024-04-18T17:15:10.557Z,17.77
2024-04-18T17:18:14.384Z,20.73
2024-04-18T17:21:18.189Z,18.33
2024-04-18T17:24:22.502Z,21.73
2024-04-18T17:27:41.515Z,21.48
2024-04-18T17:30:48.962Z,18.93
2024-04-18T17:33:53.052Z,25.70
2024-04-18T17:36:57.040Z,77.47
2024-04-18T17:40:20.586Z,97.25
2024-04-18T17:43:36.495Z,112.32
2024-04-18T17:46:40.477Z,106.93
2024-04-18T17:49:44.674Z,102.60
2024-04-18T17:52:48.649Z,106.93
2024-04-18T17:55:54.671Z,107.38
2024-04-18T17:58:58.953Z,104.10
2024-04-18T18:02:03.310Z,106.57
2024-04-18T18:05:07.163Z,111.93
2024-04-18T18:08:11.478Z,113.40
2024-04-18T18:11:18.027Z,99.53
2024-04-18T18:14:21.839Z,105.55
2024-04-18T18:17:36.864Z,107.37
2024-04-18T18:20:40.935Z,107.55
2024-04-18T18:23:46.635Z,96.35
2024-04-18T18:27:10.472Z,97.53
2024-04-18T18:30:14.222Z,88.57
2024-04-18T18:33:18.206Z,96.50
2024-04-18T18:36:23.295Z,104.60
2024-04-18T18:39:27.745Z,53.95
2024-04-18T18:42:31.492Z,78.53
2024-04-18T18:45:35.361Z,75.75
2024-04-18T18:48:38.925Z,70.83
2024-04-18T18:51:46.048Z,69.65
2024-04-18T18:54:49.998Z,67.57
2024-04-18T18:57:53.973Z,72.07
2024-04-18T19:00:57.606Z,71.20
2024-04-18T19:04:01.437Z,79.27
2024-04-18T19:07:05.229Z,71.63
2024-04-18T19:10:09.056Z,73.25
2024-04-18T19:13:13.068Z,71.18
2024-04-18T19:16:31.379Z,74.97
2024-04-18T19:19:38.125Z,70.67
2024-04-18T19:22:42.069Z,76.20
2024-04-18T19:25:47.173Z,60.33
2024-04-18T19:28:52.339Z,49.92
2024-04-18T19:31:57.099Z,48.67
2024-04-18T19:35:01.054Z,50.90
2024-04-18T19:38:05.160Z,48.58
2024-04-18T19:41:27.637Z,44.22
2024-04-18T19:44:32.542Z,55.10
2024-04-18T19:47:36.393Z,66.57
2024-04-18T19:50:41.017Z,61.27
2024-04-18T19:53:59.846Z,54.60
2024-04-18T19:57:04.572Z,60.85
2024-04-18T20:00:08.801Z,61.33
2024-04-18T20:03:19.322Z,60.63
2024-04-18T20:06:23.105Z,63.13
2024-04-18T20:09:33.907Z,60.88
2024-04-18T20:12:37.616Z,56.30
2024-04-18T20:15:44.364Z,47.45
2024-04-18T20:18:48.582Z,53.10
2024-04-18T20:21:52.310Z,52.47
2024-04-18T20:24:57.655Z,51.88
2024-04-18T20:28:16.657Z,53.90
2024-04-18T20:31:20.339Z,56.40
2024-04-18T20:34:24.202Z,52.33
2024-04-18T20:37:28.932Z,51.27
2024-04-18T20:40:33.123Z,46.20
2024-04-18T20:43:36.756Z,42.35
2024-04-18T20:46:40.426Z,48.65
2024-04-18T20:49:44.078Z,38.92
2024-04-18T20:52:48.094Z,46.80
2024-04-18T20:55:52.195Z,37.60
2024-04-18T20:58:55.922Z,40.25
2024-04-18T21:02:01.588Z,43.45
2024-04-18T21:05:07.376Z,38.88
2024-04-18T21:08:11.432Z,38.80
2024-04-18T21:11:14.961Z,41.63
2024-04-18T21:14:18.703Z,48.22
2024-04-18T21:17:22.502Z,48.40
2024-04-18T21:20:26.225Z,37.80
2024-04-18T21:23:29.938Z,42.10
2024-04-18T21:26:33.697Z,43.45
2024-04-18T21:29:37.435Z,50.67
2024-04-18T21:32:41.326Z,44.85
2024-04-18T21:35:48.452Z,40.40
2024-04-18T21:39:09.176Z,46.40
2024-04-18T21:42:12.868Z,45.47
2024-04-18T21:45:17.033Z,45.10
2024-04-18T21:48:20.757Z,46.80
2024-04-18T21:51:24.473Z,51.70
2024-04-18T21:54:28.160Z,52.00
2024-04-18T21:57:32.386Z,56.95
2024-04-18T22:00:35.996Z,66.80
2024-04-18T22:03:39.822Z,63.00
2024-04-18T22:06:43.743Z,63.28
2024-04-18T22:09:47.602Z,67.53
2024-04-18T22:12:51.354Z,57.20
2024-04-18T22:15:55.037Z,55.78
2024-04-18T22:18:59.056Z,48.70
2024-04-18T22:22:12.038Z,55.75
2024-04-18T22:25:15.707Z,54.07
2024-04-18T22:28:19.497Z,42.88
2024-04-18T22:31:23.045Z,40.15
2024-04-18T22:34:31.361Z,63.38
2024-04-18T22:38:00.741Z,73.22
2024-04-18T22:41:04.635Z,63.83
2024-04-18T22:44:08.532Z,45.92
2024-04-18T22:47:13.986Z,46.85
2024-04-18T22:50:18.064Z,47.38
2024-04-18T22:53:21.852Z,44.10
2024-04-18T22:56:27.581Z,54.07
2024-04-18T22:59:31.266Z,43.65
2024-04-18T23:02:35.183Z,49.00
2024-04-18T23:05:41.012Z,39.33
2024-04-18T23:08:45.229Z,40.47
2024-04-18T23:11:49.093Z,35.77
2024-04-18T23:14:53.139Z,34.95
2024-04-18T23:17:56.879Z,37.10
2024-04-18T23:21:01.010Z,35.17
2024-04-18T23:24:10.904Z,36.13
2024-04-18T23:27:15.552Z,29.50
2024-04-18T23:30:19.450Z,33.85
2024-04-18T23:33:23.535Z,29.67
2024-04-18T23:36:27.384Z,33.38
2024-04-18T23:39:31.621Z,26.27
2024-04-18T23:42:35.439Z,26.07
2024-04-18T23:45:39.416Z,29.33
2024-04-18T23:48:43.372Z,26.55
2024-04-18T23:51:47.405Z,22.23
2024-04-18T23:54:52.614Z,23.35
2024-04-18T23:57:56.261Z,22.20
